createdAt,value
2023-01-17T00:00:15.886Z,71.39
2023-01-17T00:02:46.471Z,71.50
2023-01-17T00:05:49.052Z,71.52
2023-01-17T00:08:51.265Z,71.70
2023-01-17T00:11:21.792Z,71.95
2023-01-17T00:13:52.262Z,71.71
2023-01-17T00:16:22.934Z,71.66
2023-01-17T00:19:06.756Z,71.44
2023-01-17T00:21:55.728Z,71.08
2023-01-17T00:24:43.227Z,71.07
2023-01-17T00:27:14.843Z,71.22
2023-01-17T00:29:43.549Z,70.91
2023-01-17T00:32:12.172Z,70.39
2023-01-17T00:34:40.840Z,69.52
2023-01-17T00:37:11.151Z,69.16
2023-01-17T00:39:39.928Z,68.70
2023-01-17T00:42:08.622Z,68.37
2023-01-17T00:44:55.504Z,68.09
2023-01-17T00:47:42.732Z,67.54
2023-01-17T00:50:33.223Z,67.26
2023-01-17T00:53:25.376Z,67.07
2023-01-17T00:56:12.756Z,66.98
2023-01-17T00:58:59.970Z,66.84
2023-01-17T01:01:47.190Z,66.73
2023-01-17T01:04:34.837Z,66.14
2023-01-17T01:07:21.795Z,65.91
2023-01-17T01:10:10.741Z,65.62
2023-01-17T01:12:58.116Z,65.33
2023-01-17T01:15:45.039Z,64.91
2023-01-17T01:18:32.222Z,64.71
2023-01-17T01:21:23.031Z,63.93
2023-01-17T01:24:10.047Z,63.50
2023-01-17T01:26:59.188Z,63.55
2023-01-17T01:29:46.756Z,62.96
2023-01-17T01:32:33.902Z,62.56
2023-01-17T01:35:04.355Z,62.47
2023-01-17T01:37:35.148Z,61.97
2023-01-17T01:40:05.647Z,61.91
2023-01-17T01:42:37.717Z,61.77
2023-01-17T01:45:19.911Z,61.57
2023-01-17T01:47:51.919Z,61.39
2023-01-17T01:50:24.188Z,61.44
2023-01-17T01:52:58.955Z,61.57
2023-01-17T01:55:33.577Z,61.38
2023-01-17T01:58:11.689Z,60.92
2023-01-17T02:00:43.449Z,60.68
2023-01-17T02:03:18.243Z,60.49
2023-01-17T02:05:49.270Z,60.28
2023-01-17T02:08:22.905Z,60.21
2023-01-17T02:10:53.878Z,59.67
2023-01-17T02:13:26.037Z,59.87
2023-01-17T02:16:05.728Z,59.08
2023-01-17T02:18:51.478Z,59.80
2023-01-17T02:21:31.631Z,59.89
2023-01-17T02:24:28.432Z,59.30
2023-01-17T02:27:07.000Z,59.28
2023-01-17T02:30:21.907Z,59.01
2023-01-17T02:33:15.037Z,59.83
2023-01-17T02:35:56.108Z,60.41
2023-01-17T02:38:39.696Z,60.48
2023-01-17T02:41:14.113Z,59.97
2023-01-17T02:43:44.729Z,58.98
2023-01-17T02:46:15.163Z,58.67
2023-01-17T02:48:48.530Z,59.25
2023-01-17T02:51:41.310Z,59.41
2023-01-17T02:54:32.085Z,58.90
2023-01-17T02:57:19.295Z,58.69
2023-01-17T02:59:55.780Z,58.41
2023-01-17T03:02:34.313Z,58.34
2023-01-17T03:05:11.786Z,59.38
2023-01-17T03:07:45.540Z,58.94
2023-01-17T03:10:19.102Z,58.07
2023-01-17T03:12:49.856Z,58.07
2023-01-17T03:15:23.526Z,58.13
2023-01-17T03:17:56.376Z,58.26
2023-01-17T03:20:28.591Z,59.22
2023-01-17T03:22:59.356Z,59.23
2023-01-17T03:25:30.011Z,58.99
2023-01-17T03:28:00.567Z,58.66
2023-01-17T03:30:31.178Z,57.26
2023-01-17T03:33:02.110Z,56.70
2023-01-17T03:35:34.240Z,56.44
2023-01-17T03:38:04.661Z,56.71
2023-01-17T03:40:35.132Z,56.72
2023-01-17T03:43:05.547Z,57.10
2023-01-17T03:45:39.077Z,57.27
2023-01-17T03:48:11.664Z,56.90
2023-01-17T03:50:45.655Z,57.15
2023-01-17T03:53:17.832Z,57.05
2023-01-17T03:55:50.397Z,56.50
2023-01-17T03:58:22.355Z,54.40
2023-01-17T04:00:55.062Z,53.59
2023-01-17T04:03:27.391Z,53.59
2023-01-17T04:06:01.713Z,53.41
2023-01-17T04:08:33.889Z,53.76
2023-01-17T04:11:06.008Z,53.35
2023-01-17T04:13:37.579Z,53.00
2023-01-17T04:16:09.951Z,51.68
2023-01-17T04:18:43.920Z,51.99
2023-01-17T04:21:17.537Z,51.11
2023-01-17T04:23:49.055Z,50.49
2023-01-17T04:26:21.361Z,51.54
2023-01-17T04:28:53.682Z,51.37
2023-01-17T04:31:26.003Z,51.55
2023-01-17T04:33:58.519Z,51.31
2023-01-17T04:36:32.746Z,50.25
2023-01-17T04:39:04.600Z,50.51
2023-01-17T04:41:36.865Z,50.82
2023-01-17T04:44:08.694Z,50.02
2023-01-17T04:46:40.478Z,49.98
2023-01-17T04:49:12.602Z,49.56
2023-01-17T04:51:46.175Z,49.95
2023-01-17T04:54:18.078Z,50.07
2023-01-17T04:56:50.816Z,49.77
2023-01-17T04:59:23.020Z,48.90
2023-01-17T05:01:55.685Z,49.03
2023-01-17T05:04:27.756Z,48.43
2023-01-17T05:07:01.525Z,49.21
2023-01-17T05:09:33.355Z,49.75
2023-01-17T05:12:05.318Z,49.92
2023-01-17T05:14:37.073Z,50.06
2023-01-17T05:17:09.375Z,49.82
2023-01-17T05:19:41.575Z,49.25
2023-01-17T05:22:19.188Z,49.73
2023-01-17T05:24:52.036Z,50.69
2023-01-17T05:27:24.727Z,50.01
2023-01-17T05:30:01.762Z,50.23
2023-01-17T05:32:34.744Z,50.16
2023-01-17T05:35:07.088Z,49.96
2023-01-17T05:37:42.273Z,49.92
2023-01-17T05:40:15.707Z,49.40
2023-01-17T05:42:50.677Z,49.34
2023-01-17T05:45:23.612Z,50.27
2023-01-17T05:47:58.169Z,50.35
2023-01-17T05:50:32.109Z,52.17
2023-01-17T05:53:07.276Z,52.67
2023-01-17T05:55:40.744Z,53.24
2023-01-17T05:58:16.712Z,52.15
2023-01-17T06:00:49.892Z,52.15
2023-01-17T06:03:22.566Z,51.56
2023-01-17T06:05:54.693Z,52.13
2023-01-17T06:08:28.376Z,52.93
2023-01-17T06:11:02.711Z,53.52
2023-01-17T06:13:34.894Z,53.96
2023-01-17T06:16:07.268Z,53.92
2023-01-17T06:18:39.274Z,54.60
2023-01-17T06:21:11.800Z,54.25
2023-01-17T06:23:48.051Z,54.11
2023-01-17T06:26:19.954Z,53.76
2023-01-17T06:28:52.067Z,53.73
2023-01-17T06:31:24.772Z,53.84
2023-01-17T06:33:57.515Z,54.02
2023-01-17T06:36:29.905Z,54.44
2023-01-17T06:39:04.011Z,55.01
2023-01-17T06:41:36.718Z,56.05
2023-01-17T06:44:10.044Z,56.69
2023-01-17T06:46:42.618Z,56.88
2023-01-17T06:49:14.075Z,57.62
2023-01-17T06:51:45.497Z,58.54
2023-01-17T06:54:20.378Z,59.73
2023-01-17T06:56:52.760Z,60.39
2023-01-17T06:59:25.796Z,61.17
2023-01-17T07:02:08.632Z,61.87
2023-01-17T07:04:39.496Z,62.08
2023-01-17T07:07:09.916Z,62.48
2023-01-17T07:09:41.910Z,63.04
2023-01-17T07:12:12.549Z,62.94
2023-01-17T07:14:42.919Z,63.03
2023-01-17T07:17:13.395Z,63.45
2023-01-17T07:19:43.868Z,63.78
2023-01-17T07:22:14.216Z,63.91
2023-01-17T07:24:46.258Z,64.42
2023-01-17T07:27:16.705Z,64.93
2023-01-17T07:29:47.125Z,65.35
2023-01-17T07:32:17.514Z,65.40
2023-01-17T07:34:48.012Z,65.60
2023-01-17T07:37:18.444Z,66.15
2023-01-17T07:39:50.610Z,66.57
2023-01-17T07:42:23.176Z,66.75
2023-01-17T07:44:54.416Z,66.86
2023-01-17T07:47:25.711Z,67.29
2023-01-17T07:49:56.312Z,67.46
2023-01-17T07:52:26.697Z,67.36
2023-01-17T07:54:58.793Z,67.85
2023-01-17T07:57:29.272Z,68.13
2023-01-17T07:59:59.734Z,68.63
2023-01-17T08:02:30.162Z,69.35
2023-01-17T08:05:10.029Z,69.96
2023-01-17T08:07:40.445Z,70.63
2023-01-17T08:10:19.138Z,70.69
2023-01-17T08:12:53.655Z,70.93
2023-01-17T08:15:28.389Z,71.02
2023-01-17T08:18:02.964Z,71.12
2023-01-17T08:20:56.266Z,71.47
2023-01-17T08:23:26.780Z,71.59
2023-01-17T08:26:03.463Z,71.47
2023-01-17T08:28:34.063Z,71.49
2023-01-17T08:31:10.082Z,71.64
2023-01-17T08:33:40.698Z,70.95
2023-01-17T08:36:12.452Z,70.14
2023-01-17T08:38:43.011Z,69.76
2023-01-17T08:41:15.442Z,69.30
2023-01-17T08:43:46.224Z,69.71
2023-01-17T08:46:17.166Z,69.70
2023-01-17T08:49:13.696Z,69.63
2023-01-17T08:51:45.579Z,69.57
2023-01-17T08:54:17.258Z,69.93
2023-01-17T08:56:53.897Z,69.67
2023-01-17T08:59:25.661Z,70.60
2023-01-17T09:01:59.295Z,70.85
2023-01-17T09:04:31.083Z,70.57
2023-01-17T09:07:03.761Z,69.96
2023-01-17T09:09:38.896Z,69.23
2023-01-17T09:12:13.288Z,68.92
2023-01-17T09:14:47.826Z,68.50
2023-01-17T09:17:21.276Z,68.41
2023-01-17T09:19:52.937Z,68.46
2023-01-17T09:22:24.505Z,68.61
2023-01-17T09:24:58.184Z,68.74
2023-01-17T09:27:31.577Z,68.79
2023-01-17T09:30:03.279Z,69.14
2023-01-17T09:32:37.690Z,69.76
2023-01-17T09:35:10.392Z,70.04
2023-01-17T09:37:42.036Z,70.22
2023-01-17T09:40:18.232Z,71.00
2023-01-17T09:42:59.156Z,71.65
2023-01-17T09:45:34.521Z,71.57
2023-01-17T09:48:12.544Z,71.78
2023-01-17T09:50:54.125Z,71.96
2023-01-17T09:53:30.942Z,71.70
2023-01-17T09:56:06.937Z,71.70
2023-01-17T09:58:47.568Z,72.00
2023-01-17T10:01:26.189Z,72.37
2023-01-17T10:04:16.762Z,72.26
2023-01-17T10:07:04.797Z,72.52
2023-01-17T10:09:53.415Z,72.78
2023-01-17T10:12:34.594Z,72.77
2023-01-17T10:15:27.815Z,72.67
2023-01-17T10:18:16.601Z,72.98
2023-01-17T10:21:02.593Z,72.69
2023-01-17T10:24:07.751Z,72.75
2023-01-17T10:26:41.378Z,72.55
2023-01-17T10:29:21.086Z,72.75
2023-01-17T10:31:59.135Z,72.35
2023-01-17T10:34:35.620Z,71.95
2023-01-17T10:37:19.465Z,71.79
2023-01-17T10:39:52.991Z,71.64
2023-01-17T10:42:30.176Z,71.70
2023-01-17T10:45:07.506Z,72.39
2023-01-17T10:47:42.167Z,72.33
2023-01-17T10:50:20.267Z,72.74
2023-01-17T10:53:00.136Z,72.76
2023-01-17T10:55:38.462Z,72.86
2023-01-17T10:58:14.376Z,72.38
2023-01-17T11:00:51.150Z,72.63
2023-01-17T11:03:25.022Z,72.47
2023-01-17T11:06:20.947Z,72.66
2023-01-17T11:08:59.859Z,72.71
2023-01-17T11:11:34.737Z,72.37
2023-01-17T11:14:08.639Z,72.64
2023-01-17T11:16:50.818Z,72.73
2023-01-17T11:19:30.545Z,73.00
2023-01-17T11:22:05.690Z,72.63
2023-01-17T11:24:41.492Z,72.29
2023-01-17T11:27:27.389Z,71.67
2023-01-17T11:30:17.206Z,71.10
2023-01-17T11:32:58.399Z,71.09
2023-01-17T11:35:32.196Z,70.51
2023-01-17T11:38:15.650Z,69.75
2023-01-17T11:40:48.536Z,69.74
2023-01-17T11:43:28.735Z,69.50
2023-01-17T11:46:08.141Z,69.35
2023-01-17T11:48:41.154Z,69.80
2023-01-17T11:51:27.335Z,69.91
2023-01-17T11:54:18.486Z,70.00
2023-01-17T11:56:49.285Z,69.82
2023-01-17T11:59:32.247Z,69.44
2023-01-17T12:02:26.951Z,69.10
2023-01-17T12:05:16.287Z,68.84
2023-01-17T12:08:07.957Z,68.16
2023-01-17T12:10:53.387Z,67.83
2023-01-17T12:13:52.983Z,67.87
2023-01-17T12:16:32.549Z,67.85
2023-01-17T12:19:47.209Z,67.56
2023-01-17T12:22:37.775Z,67.86
2023-01-17T12:25:27.757Z,67.56
2023-01-17T12:28:12.488Z,67.54
2023-01-17T12:31:07.629Z,67.28
2023-01-17T12:33:52.703Z,67.27
2023-01-17T12:36:39.126Z,67.30
2023-01-17T12:39:15.121Z,67.81
2023-01-17T12:42:05.653Z,67.65
2023-01-17T12:44:54.437Z,67.87
2023-01-17T12:47:25.694Z,67.65
2023-01-17T12:50:07.963Z,67.06
2023-01-17T12:52:56.124Z,67.14
2023-01-17T12:55:38.379Z,67.04
2023-01-17T12:58:22.837Z,66.80
2023-01-17T13:01:03.661Z,67.25
2023-01-17T13:03:46.122Z,67.06
2023-01-17T13:06:25.830Z,67.19
2023-01-17T13:09:03.569Z,66.68
2023-01-17T13:11:44.671Z,66.52
2023-01-17T13:14:19.733Z,66.33
2023-01-17T13:16:59.005Z,66.49
2023-01-17T13:19:49.395Z,66.82
2023-01-17T13:22:24.467Z,67.51
2023-01-17T13:25:04.685Z,67.95
2023-01-17T13:28:06.007Z,67.98
2023-01-17T13:31:19.628Z,68.26
2023-01-17T13:34:14.072Z,68.15
2023-01-17T13:36:58.796Z,68.44
2023-01-17T13:40:05.854Z,69.25
2023-01-17T13:42:48.920Z,69.96
2023-01-17T13:45:26.291Z,70.87
2023-01-17T13:48:15.507Z,71.27
2023-01-17T13:51:00.883Z,71.43
2023-01-17T13:54:05.215Z,71.23
2023-01-17T13:56:43.110Z,71.36
2023-01-17T13:59:37.224Z,71.29
2023-01-17T14:02:44.012Z,71.63
2023-01-17T14:05:23.238Z,71.69
2023-01-17T14:08:04.012Z,71.69
2023-01-17T14:10:45.668Z,71.83
2023-01-17T14:13:38.033Z,71.97
2023-01-17T14:16:28.410Z,72.08
2023-01-17T14:19:09.787Z,72.13
2023-01-17T14:21:40.643Z,72.10
2023-01-17T14:24:22.179Z,71.96
2023-01-17T14:30:42.961Z,72.72
2023-01-17T14:33:48.546Z,72.74
2023-01-17T14:36:32.972Z,73.07
2023-01-17T14:39:04.522Z,73.06
2023-01-17T14:41:37.510Z,72.31
2023-01-17T14:44:39.230Z,72.19
2023-01-17T14:47:20.243Z,71.69
2023-01-17T14:49:53.754Z,71.29
2023-01-17T14:52:30.144Z,70.95
2023-01-17T14:55:24.444Z,70.73
2023-01-17T14:58:00.790Z,70.69
2023-01-17T15:03:29.048Z,70.32
2023-01-17T15:06:06.352Z,70.33
2023-01-17T15:08:43.668Z,70.22
2023-01-17T15:11:21.643Z,70.24
2023-01-17T15:14:05.430Z,70.22
2023-01-17T15:16:44.754Z,70.18
2023-01-17T15:19:20.876Z,70.15
2023-01-17T15:21:54.601Z,70.03
2023-01-17T15:24:38.301Z,69.71
2023-01-17T15:27:18.056Z,69.87
2023-01-17T15:29:54.808Z,70.05
2023-01-17T15:32:31.943Z,70.57
2023-01-17T15:35:20.138Z,70.97
2023-01-17T15:37:59.481Z,71.16
2023-01-17T15:40:34.453Z,70.52
2023-01-17T15:43:08.208Z,70.52
2023-01-17T15:45:41.704Z,71.34
2023-01-17T15:48:50.642Z,72.15
2023-01-17T15:51:36.474Z,72.73
2023-01-17T15:54:42.447Z,72.85
2023-01-17T15:57:27.023Z,72.84
2023-01-17T16:00:22.708Z,72.84
2023-01-17T16:03:00.382Z,72.28
2023-01-17T16:05:46.930Z,71.73
2023-01-17T16:08:41.685Z,71.56
2023-01-17T16:11:28.018Z,71.19
2023-01-17T16:15:06.216Z,71.26
2023-01-17T16:17:43.432Z,72.07
2023-01-17T16:20:24.612Z,72.44
2023-01-17T16:23:02.936Z,72.74
2023-01-17T16:25:37.496Z,72.96
2023-01-17T16:28:13.671Z,72.32
2023-01-17T16:30:45.624Z,71.72
2023-01-17T16:33:16.841Z,71.38
2023-01-17T16:35:52.340Z,71.07
2023-01-17T16:38:23.854Z,70.15
2023-01-17T16:40:57.998Z,69.23
2023-01-17T16:43:30.799Z,69.15
2023-01-17T16:46:05.329Z,69.81
2023-01-17T16:48:36.275Z,70.03
2023-01-17T16:51:10.729Z,70.43
2023-01-17T16:53:43.238Z,70.58
2023-01-17T16:56:18.091Z,70.29
2023-01-17T16:58:54.372Z,70.24
2023-01-17T17:01:28.482Z,70.01
2023-01-17T17:04:06.786Z,70.21
2023-01-17T17:06:44.109Z,70.41
2023-01-17T17:09:15.859Z,70.57
2023-01-17T17:11:48.262Z,70.87
2023-01-17T17:14:19.357Z,70.61
2023-01-17T17:16:53.447Z,70.44
2023-01-17T17:19:25.095Z,70.36
2023-01-17T17:22:04.020Z,70.96
2023-01-17T17:24:35.672Z,71.82
2023-01-17T17:27:06.741Z,71.52
2023-01-17T17:29:37.918Z,72.10
2023-01-17T17:32:13.171Z,72.54
2023-01-17T17:34:50.544Z,72.72
2023-01-17T17:37:38.663Z,72.69
2023-01-17T17:40:14.276Z,73.13
2023-01-17T17:42:50.805Z,73.51
2023-01-17T17:45:21.560Z,73.33
2023-01-17T17:47:57.840Z,73.22
2023-01-17T17:50:32.098Z,72.93
2023-01-17T17:53:04.635Z,72.73
2023-01-17T17:55:37.305Z,72.80
2023-01-17T17:58:12.771Z,72.94
2023-01-17T18:00:50.170Z,72.68
2023-01-17T18:03:25.049Z,72.23
2023-01-17T18:06:07.343Z,72.07
2023-01-17T18:08:46.104Z,72.48
2023-01-17T18:11:30.177Z,73.21
2023-01-17T18:14:03.689Z,73.52
2023-01-17T18:16:45.720Z,73.49
2023-01-17T18:19:18.295Z,73.72
2023-01-17T18:21:49.479Z,73.09
2023-01-17T18:24:23.640Z,72.54
2023-01-17T18:26:57.192Z,72.09
2023-01-17T18:29:31.388Z,72.16
2023-01-17T18:32:02.710Z,71.82
2023-01-17T18:34:36.027Z,71.34
2023-01-17T18:37:09.974Z,70.75
2023-01-17T18:39:49.003Z,70.21
2023-01-17T18:42:21.205Z,69.76
2023-01-17T18:44:54.303Z,69.44
2023-01-17T18:47:28.564Z,69.65
2023-01-17T18:50:02.601Z,69.73
2023-01-17T18:52:34.908Z,69.32
2023-01-17T18:55:15.181Z,68.97
2023-01-17T18:57:46.695Z,68.66
2023-01-17T19:00:20.815Z,68.86
2023-01-17T19:02:56.935Z,68.82
2023-01-17T19:05:27.524Z,68.55
2023-01-17T19:07:59.620Z,68.78
2023-01-17T19:10:31.751Z,68.76
2023-01-17T19:13:03.524Z,68.77
2023-01-17T19:15:37.085Z,68.62
2023-01-17T19:18:09.682Z,68.64
2023-01-17T19:20:42.497Z,68.37
2023-01-17T19:23:14.411Z,67.66
2023-01-17T19:25:56.500Z,66.80
2023-01-17T19:28:30.497Z,66.26
2023-01-17T19:31:08.493Z,66.22
2023-01-17T19:33:48.958Z,67.10
2023-01-17T19:36:21.672Z,67.28
2023-01-17T19:39:04.967Z,67.37
2023-01-17T19:41:38.728Z,67.41
2023-01-17T19:44:13.099Z,67.79
2023-01-17T19:46:45.272Z,67.99
2023-01-17T19:49:20.578Z,67.79
2023-01-17T19:51:51.551Z,67.10
2023-01-17T19:54:22.134Z,66.34
2023-01-17T19:57:01.758Z,66.29
2023-01-17T19:59:34.711Z,65.84
2023-01-17T20:02:06.747Z,65.78
2023-01-17T20:04:38.525Z,66.26
2023-01-17T20:07:09.070Z,66.51
2023-01-17T20:09:39.849Z,66.61
2023-01-17T20:12:13.297Z,66.23
2023-01-17T20:14:43.899Z,65.54
2023-01-17T20:17:14.536Z,64.99
2023-01-17T20:19:46.741Z,64.63
2023-01-17T20:22:17.314Z,64.41
2023-01-17T20:24:48.019Z,63.64
2023-01-17T20:27:22.265Z,63.45
2023-01-17T20:29:53.206Z,63.88
2023-01-17T20:32:28.430Z,64.34
2023-01-17T20:34:59.098Z,64.90
2023-01-17T20:37:29.703Z,65.47
2023-01-17T20:40:00.339Z,66.29
2023-01-17T20:42:35.385Z,66.90
2023-01-17T20:45:15.803Z,67.31
2023-01-17T20:47:55.481Z,67.68
2023-01-17T20:50:25.583Z,67.63
2023-01-17T20:52:55.378Z,67.71
2023-01-17T20:55:25.993Z,68.15
2023-01-17T20:58:00.412Z,68.13
2023-01-17T21:00:30.931Z,68.04
2023-01-17T21:03:03.890Z,68.00
2023-01-17T21:05:34.449Z,68.18
2023-01-17T21:08:05.953Z,68.09
2023-01-17T21:10:36.497Z,67.93
2023-01-17T21:13:08.613Z,68.10
2023-01-17T21:15:45.626Z,68.89
2023-01-17T21:18:17.443Z,69.48
2023-01-17T21:20:47.961Z,69.98
2023-01-17T21:23:20.905Z,69.94
2023-01-17T21:26:00.983Z,70.78
2023-01-17T21:28:35.620Z,71.29
2023-01-17T21:31:18.811Z,70.89
2023-01-17T21:33:49.908Z,70.59
2023-01-17T21:36:20.552Z,69.65
2023-01-17T21:38:52.839Z,68.92
2023-01-17T21:41:24.359Z,68.13
2023-01-17T21:43:59.693Z,67.62
2023-01-17T21:46:31.388Z,67.63
2023-01-17T21:49:03.854Z,67.75
2023-01-17T21:52:07.084Z,68.19
2023-01-17T21:54:54.405Z,68.59
2023-01-17T21:57:42.178Z,68.50
2023-01-17T22:00:16.823Z,68.64
2023-01-17T22:02:50.812Z,67.97
2023-01-17T22:05:26.767Z,67.46
2023-01-17T22:08:16.255Z,67.22
2023-01-17T22:10:49.816Z,66.94
2023-01-17T22:13:21.135Z,66.96
2023-01-17T22:16:01.384Z,66.83
2023-01-17T22:18:32.421Z,66.84
2023-01-17T22:21:08.384Z,66.75
2023-01-17T22:23:42.307Z,66.89
2023-01-17T22:26:17.688Z,67.01
2023-01-17T22:28:50.236Z,67.05
2023-01-17T22:31:25.775Z,67.44
2023-01-17T22:34:10.122Z,67.65
2023-01-17T22:37:15.565Z,68.08
2023-01-17T22:39:52.034Z,69.32
2023-01-17T22:42:28.652Z,70.27
2023-01-17T22:45:05.562Z,70.54
2023-01-17T22:47:42.044Z,71.39
2023-01-17T22:50:16.907Z,71.68
2023-01-17T22:52:51.892Z,71.93
2023-01-17T22:55:28.355Z,72.33
2023-01-17T22:58:02.061Z,72.23
2023-01-17T23:00:35.280Z,72.12
2023-01-17T23:03:11.040Z,71.88
2023-01-17T23:05:48.422Z,71.84
2023-01-17T23:08:22.591Z,71.48
2023-01-17T23:11:12.413Z,71.24
2023-01-17T23:13:44.568Z,71.54
2023-01-17T23:16:35.094Z,71.65
2023-01-17T23:19:29.047Z,71.57
2023-01-17T23:22:20.278Z,71.30
2023-01-17T23:24:55.995Z,71.47
2023-01-17T23:27:47.221Z,71.22
2023-01-17T23:30:21.916Z,71.51
2023-01-17T23:32:58.540Z,71.67
2023-01-17T23:35:41.244Z,71.52
2023-01-17T23:38:31.792Z,70.92
2023-01-17T23:41:26.472Z,70.55
2023-01-17T23:44:02.382Z,70.02
2023-01-17T23:46:37.419Z,70.37
2023-01-17T23:49:11.992Z,70.43
2023-01-17T23:51:48.487Z,70.53
2023-01-17T23:54:22.469Z,70.45
2023-01-17T23:57:00.408Z,70.23
2023-01-17T23:59:34.709Z,70.26
